Time,TemperatureF,DewpointF,PressureIn,WindDirection,WindDirectionDegrees,WindSpeedMPH,WindSpeedGustMPH,Humidity,HourlyPrecipIn,Conditions,Clouds,dailyrainin,SoftwareType,DateUTC
2013-11-20 00:01:00,22.1,17.9,30.44,SSE,157,0.0,-999.0,83,0.00,,,0.00,MetarLogicWeatherSta,2013-11-20 05:01:00,
2013-11-20 00:06:00,21.9,17.4,30.44,SE,135,0.0,-999.0,82,0.00,,,0.00,MetarLogicWeatherSta,2013-11-20 05:06:00,
2013-11-20 00:11:00,21.5,17.1,30.44,SSE,157,0.0,-999.0,82,0.00,,,0.00,MetarLogicWeatherSta,2013-11-20 05:11:00,
2013-11-20 00:16:00,21.6,17.3,30.44,SE,135,0.0,-999.0,83,0.00,,,0.00,MetarLogicWeatherSta,2013-11-20 05:16:00,
2013-11-20 00:21:00,21.3,16.8,30.44,SE,135,0.0,-999.0,82,0.00,,,0.00,MetarLogicWeatherSta,2013-11-20 05:21:00,
2013-11-20 00:26:00,21.0,16.6,30.44,SSE,157,0.0,-999.0,82,0.00,,,0.00,MetarLogicWeatherSta,2013-11-20 05:26:00,
2013-11-20 00:31:00,20.7,16.5,30.44,SE,135,0.0,-999.0,83,0.00,,,0.00,MetarLogicWeatherSta,2013-11-20 05:31:00,
2013-11-20 00:36:00,20.6,16.2,30.44,SE,135,0.0,-999.0,83,0.00,,,0.00,MetarLogicWeatherSta,2013-11-20 05:36:00,
2013-11-20 00:41:00,20.3,16.0,30.44,SE,135,0.0,-999.0,83,0.00,,,0.00,MetarLogicWeatherSta,2013-11-20 05:41:00,
2013-11-20 00:46:00,20.1,16.1,30.44,SSE,157,0.0,-999.0,84,0.00,,,0.00,MetarLogicWeatherSta,2013-11-20 05:46:00,
2013-11-20 00:51:00,20.0,16.0,30.44,SSE,157,0.0,-999.0,84,0.00,,,0.00,MetarLogicWeatherSta,2013-11-20 05:51:00,
2013-11-20 00:56:00,20.1,16.2,30.44,SSE,157,0.0,-999.0,84,0.00,,,0.00,MetarLogicWeatherSta,2013-11-20 05:56:00,
2013-11-20 01:01:00,20.0,16.0,30.44,SE,135,0.0,-999.0,84,0.00,,,0.00,MetarLogicWeatherSta,2013-11-20 06:01:00,
2013-11-20 01:06:00,19.6,15.6,30.45,SSE,157,0.0,-999.0,84,0.00,,,0.00,MetarLogicWeatherSta,2013-11-20 06:06:00,
2013-11-20 01:11:00,19.5,15.5,30.45,SE,135,0.0,-999.0,84,0.00,,,0.00,MetarLogicWeatherSta,2013-11-20 06:11:00,
2013-11-20 01:16:00,19.4,15.3,30.45,SE,135,0.0,-999.0,84,0.00,,,0.00,MetarLogicWeatherSta,2013-11-20 06:16:00,
2013-11-20 01:21:00,19.5,15.5,30.45,SE,135,0.0,-999.0,84,0.00,,,0.00,MetarLogicWeatherSta,2013-11-20 06:21:00,
2013-11-20 01:26:00,19.3,15.4,30.45,SE,135,0.0,-999.0,84,0.00,,,0.00,MetarLogicWeatherSta,2013-11-20 06:26:00,
2013-11-20 01:31:00,19.2,15.2,30.45,SE,135,0.0,-999.0,84,0.00,,,0.00,MetarLogicWeatherSta,2013-11-20 06:31:00,
2013-11-20 01:36:00,19.2,15.2,30.45,SE,135,0.0,-999.0,84,0.00,,,0.00,MetarLogicWeatherSta,2013-11-20 06:36:00,
2013-11-20 01:41:00,18.9,15.0,30.46,SE,135,0.0,-999.0,84,0.00,,,0.00,MetarLogicWeatherSta,2013-11-20 06:41:00,
2013-11-20 01:46:00,18.7,14.8,30.46,SE,135,0.0,-999.0,84,0.00,,,0.00,MetarLogicWeatherSta,2013-11-20 06:46:00,
2013-11-20 01:51:00,18.6,14.7,30.46,SE,135,0.0,-999.0,84,0.00,,,0.00,MetarLogicWeatherSta,2013-11-20 06:51:00,
2013-11-20 01:56:00,18.7,15.1,30.46,SE,135,0.0,-999.0,85,0.00,,,0.00,MetarLogicWeatherSta,2013-11-20 06:56:00,
2013-11-20 02:01:00,18.7,15.0,30.47,SE,135,0.0,-999.0,85,0.00,,,0.00,MetarLogicWeatherSta,2013-11-20 07:01:00,
2013-11-20 02:06:00,19.0,15.2,30.47,SE,135,0.0,-999.0,85,0.00,,,0.00,MetarLogicWeatherSta,2013-11-20 07:06:00,
2013-11-20 02:11:00,18.6,14.9,30.47,SSE,157,0.0,-999.0,85,0.00,,,0.00,MetarLogicWeatherSta,2013-11-20 07:11:00,
2013-11-20 02:16:00,18.6,14.8,30.47,SE,135,0.0,-999.0,85,0.00,,,0.00,MetarLogicWeatherSta,2013-11-20 07:16:00,
2013-11-20 02:21:00,18.4,14.7,30.48,SE,135,0.0,-999.0,85,0.00,,,0.00,MetarLogicWeatherSta,2013-11-20 07:21:00,
2013-11-20 02:26:00,18.2,14.7,30.48,SE,135,0.0,-999.0,85,0.00,,,0.00,MetarLogicWeatherSta,2013-11-20 07:26:00,
2013-11-20 02:31:00,18.3,14.6,30.48,SSE,157,0.0,-999.0,85,0.00,,,0.00,MetarLogicWeatherSta,2013-11-20 07:31:00,
2013-11-20 02:36:00,18.0,14.5,30.48,SSE,157,0.0,-999.0,85,0.00,,,0.00,MetarLogicWeatherSta,2013-11-20 07:36:00,
2013-11-20 02:41:00,17.9,14.4,30.48,SSE,157,0.0,-999.0,85,0.00,,,0.00,MetarLogicWeatherSta,2013-11-20 07:41:00,
2013-11-20 02:46:00,17.9,14.4,30.49,SSE,157,0.0,-999.0,85,0.00,,,0.00,MetarLogicWeatherSta,2013-11-20 07:46:00,
2013-11-20 02:51:00,17.6,14.1,30.48,SSE,157,0.0,-999.0,85,0.00,,,0.00,MetarLogicWeatherSta,2013-11-20 07:51:00,
2013-11-20 02:56:00,17.8,14.3,30.49,SE,135,0.0,-999.0,86,0.00,,,0.00,MetarLogicWeatherSta,2013-11-20 07:56:00,
2013-11-20 03:01:00,17.8,14.4,30.49,SSE,157,0.0,-999.0,86,0.00,,,0.00,MetarLogicWeatherSta,2013-11-20 08:01:00,
2013-11-20 03:06:00,17.7,14.3,30.49,SE,135,0.0,-999.0,86,0.00,,,0.00,MetarLogicWeatherSta,2013-11-20 08:06:00,
2013-11-20 03:11:00,17.6,14.1,30.49,SE,135,0.0,-999.0,86,0.00,,,0.00,MetarLogicWeatherSta,2013-11-20 08:11:00,
2013-11-20 03:16:00,17.4,14.0,30.49,SE,135,0.0,-999.0,86,0.00,,,0.00,MetarLogicWeatherSta,2013-11-20 08:16:00,
2013-11-20 03:21:00,17.4,14.1,30.49,SE,135,0.0,-999.0,86,0.00,,,0.00,MetarLogicWeatherSta,2013-11-20 08:21:00,
2013-11-20 03:26:00,17.4,13.9,30.49,SE,135,0.0,-999.0,86,0.00,,,0.00,MetarLogicWeatherSta,2013-11-20 08:26:00,
2013-11-20 03:31:00,17.2,13.8,30.49,SE,135,0.0,-999.0,86,0.00,,,0.00,MetarLogicWeatherSta,2013-11-20 08:31:00,
2013-11-20 03:36:00,17.2,13.8,30.49,SE,135,0.0,-999.0,86,0.00,,,0.00,MetarLogicWeatherSta,2013-11-20 08:36:00,
2013-11-20 03:41:00,17.4,14.1,30.49,SE,135,0.0,-999.0,86,0.00,,,0.00,MetarLogicWeatherSta,2013-11-20 08:41:00,
2013-11-20 03:46:00,17.4,14.2,30.50,SE,135,0.0,-999.0,87,0.00,,,0.00,MetarLogicWeatherSta,2013-11-20 08:46:00,
2013-11-20 03:51:00,17.4,14.1,30.50,SE,135,0.0,-999.0,86,0.00,,,0.00,MetarLogicWeatherSta,2013-11-20 08:51:00,
2013-11-20 03:56:00,17.4,14.2,30.51,SSE,157,0.0,-999.0,87,0.00,,,0.00,MetarLogicWeatherSta,2013-11-20 08:56:00,
2013-11-20 04:01:00,17.8,14.6,30.51,SE,135,0.0,-999.0,87,0.00,,,0.00,MetarLogicWeatherSta,2013-11-20 09:01:00,
2013-11-20 04:06:00,17.7,14.4,30.51,SE,135,0.0,-999.0,86,0.00,,,0.00,MetarLogicWeatherSta,2013-11-20 09:06:00,
2013-11-20 04:11:00,17.7,14.3,30.51,SE,135,0.0,-999.0,86,0.00,,,0.00,MetarLogicWeatherSta,2013-11-20 09:11:00,
2013-11-20 04:16:00,17.3,14.0,30.51,ENE,67,3.0,-999.0,86,0.00,,,0.00,MetarLogicWeatherSta,2013-11-20 09:16:00,
2013-11-20 04:21:00,17.1,13.9,30.51,SSE,157,0.0,-999.0,87,0.00,,,0.00,MetarLogicWeatherSta,2013-11-20 09:21:00,
2013-11-20 04:26:00,17.3,14.2,30.51,SSE,157,0.0,-999.0,87,0.00,,,0.00,MetarLogicWeatherSta,2013-11-20 09:26:00,
2013-11-20 04:31:00,17.0,13.9,30.51,SSE,157,0.0,-999.0,87,0.00,,,0.00,MetarLogicWeatherSta,2013-11-20 09:31:00,
2013-11-20 04:36:00,17.3,14.2,30.52,SSE,157,0.0,-999.0,87,0.00,,,0.00,MetarLogicWeatherSta,2013-11-20 09:36:00,
2013-11-20 04:41:00,17.3,14.3,30.51,SSE,157,0.0,-999.0,87,0.00,,,0.00,MetarLogicWeatherSta,2013-11-20 09:41:00,
2013-11-20 04:46:00,17.3,14.1,30.52,SE,135,0.0,-999.0,87,0.00,,,0.00,MetarLogicWeatherSta,2013-11-20 09:46:00,
2013-11-20 04:51:00,17.3,14.0,30.52,SE,135,0.0,-999.0,86,0.00,,,0.00,MetarLogicWeatherSta,2013-11-20 09:51:00,
2013-11-20 04:56:00,16.9,13.7,30.52,SE,135,0.0,-999.0,87,0.00,,,0.00,MetarLogicWeatherSta,2013-11-20 09:56:00,
2013-11-20 05:01:00,16.8,13.6,30.52,SSE,157,0.0,-999.0,87,0.00,,,0.00,MetarLogicWeatherSta,2013-11-20 10:01:00,
2013-11-20 05:06:00,16.6,13.7,30.52,SE,135,0.0,-999.0,88,0.00,,,0.00,MetarLogicWeatherSta,2013-11-20 10:06:00,
2013-11-20 05:11:00,16.6,13.4,30.52,SE,135,0.0,-999.0,87,0.00,,,0.00,MetarLogicWeatherSta,2013-11-20 10:11:00,
2013-11-20 05:16:00,16.4,13.3,30.52,SSE,157,0.0,-999.0,87,0.00,,,0.00,MetarLogicWeatherSta,2013-11-20 10:16:00,
2013-11-20 05:21:00,16.3,13.1,30.52,SSE,157,0.0,-999.0,87,0.00,,,0.00,MetarLogicWeatherSta,2013-11-20 10:21:00,
2013-11-20 05:26:00,16.1,13.1,30.52,SE,135,0.0,-999.0,87,0.00,,,0.00,MetarLogicWeatherSta,2013-11-20 10:26:00,
2013-11-20 05:31:00,16.0,12.9,30.52,SE,135,0.0,-999.0,87,0.00,,,0.00,MetarLogicWeatherSta,2013-11-20 10:31:00,
2013-11-20 05:36:00,15.9,12.7,30.53,SE,135,0.0,-999.0,87,0.00,,,0.00,MetarLogicWeatherSta,2013-11-20 10:36:00,
2013-11-20 05:41:00,15.7,12.6,30.53,SE,135,0.0,-999.0,87,0.00,,,0.00,MetarLogicWeatherSta,2013-11-20 10:41:00,
2013-11-20 05:46:00,15.7,12.7,30.53,SE,135,0.0,-999.0,87,0.00,,,0.00,MetarLogicWeatherSta,2013-11-20 10:46:00,
2013-11-20 05:51:00,15.6,12.5,30.53,SE,135,0.0,-999.0,87,0.00,,,0.00,MetarLogicWeatherSta,2013-11-20 10:51:00,
2013-11-20 05:56:00,15.5,12.8,30.53,SE,135,0.0,-999.0,88,0.00,,,0.00,MetarLogicWeatherSta,2013-11-20 10:56:00,
2013-11-20 06:01:00,15.8,12.9,30.53,SE,135,0.0,-999.0,88,0.00,,,0.00,MetarLogicWeatherSta,2013-11-20 11:01:00,
2013-11-20 06:06:00,16.0,13.1,30.53,SE,135,0.0,-999.0,88,0.00,,,0.00,MetarLogicWeatherSta,2013-11-20 11:06:00,
2013-11-20 06:11:00,16.0,13.0,30.53,SE,135,0.0,-999.0,88,0.00,,,0.00,MetarLogicWeatherSta,2013-11-20 11:11:00,
2013-11-20 06:16:00,16.0,13.1,30.54,SE,135,0.0,-999.0,88,0.00,,,0.00,MetarLogicWeatherSta,2013-11-20 11:16:00,
2013-11-20 06:21:00,16.1,13.2,30.54,SE,135,0.0,-999.0,88,0.00,,,0.00,MetarLogicWeatherSta,2013-11-20 11:21:00,
2013-11-20 06:26:00,16.3,13.3,30.54,SE,135,0.0,-999.0,87,0.00,,,0.00,MetarLogicWeatherSta,2013-11-20 11:26:00,
2013-11-20 06:31:00,16.0,13.0,30.54,SE,135,0.0,-999.0,87,0.00,,,0.00,MetarLogicWeatherSta,2013-11-20 11:31:00,
2013-11-20 06:36:00,16.0,13.0,30.54,SE,135,0.0,-999.0,87,0.00,,,0.00,MetarLogicWeatherSta,2013-11-20 11:36:00,
2013-11-20 06:41:00,15.9,12.8,30.55,SE,135,0.0,-999.0,87,0.00,,,0.00,MetarLogicWeatherSta,2013-11-20 11:41:00,
2013-11-20 06:46:00,15.7,12.9,30.55,SE,135,0.0,-999.0,88,0.00,,,0.00,MetarLogicWeatherSta,2013-11-20 11:46:00,
2013-11-20 06:51:00,15.8,12.9,30.55,SE,135,0.0,-999.0,88,0.00,,,0.00,MetarLogicWeatherSta,2013-11-20 11:51:00,
2013-11-20 06:56:00,15.6,12.5,30.55,SE,135,0.0,-999.0,87,0.00,,,0.00,MetarLogicWeatherSta,2013-11-20 11:56:00,
2013-11-20 07:01:00,15.3,12.4,30.55,SE,135,0.0,-999.0,88,0.00,,,0.00,MetarLogicWeatherSta,2013-11-20 12:01:00,
2013-11-20 07:06:00,15.3,12.4,30.56,SE,135,0.0,-999.0,88,0.00,,,0.00,MetarLogicWeatherSta,2013-11-20 12:06:00,
2013-11-20 07:11:00,15.3,12.4,30.56,SSE,157,0.0,-999.0,88,0.00,,,0.00,MetarLogicWeatherSta,2013-11-20 12:11:00,
2013-11-20 07:16:00,15.3,12.5,30.56,SSE,157,0.0,-999.0,88,0.00,,,0.00,MetarLogicWeatherSta,2013-11-20 12:16:00,
2013-11-20 07:21:00,15.5,12.8,30.56,SE,135,0.0,-999.0,88,0.00,,,0.00,MetarLogicWeatherSta,2013-11-20 12:21:00,
2013-11-20 07:26:00,15.4,12.5,30.56,SE,135,0.0,-999.0,88,0.00,,,0.00,MetarLogicWeatherSta,2013-11-20 12:26:00,
2013-11-20 07:31:00,15.3,12.4,30.56,SE,135,0.0,-999.0,88,0.00,,,0.00,MetarLogicWeatherSta,2013-11-20 12:31:00,
2013-11-20 07:36:00,15.2,12.4,30.56,SE,135,0.0,-999.0,88,0.00,,,0.00,MetarLogicWeatherSta,2013-11-20 12:36:00,
2013-11-20 07:41:00,15.2,12.6,30.56,SSE,157,0.0,-999.0,89,0.00,,,0.00,MetarLogicWeatherSta,2013-11-20 12:41:00,
2013-11-20 07:46:00,15.6,13.0,30.57,SE,135,0.0,-999.0,89,0.00,,,0.00,MetarLogicWeatherSta,2013-11-20 12:46:00,
2013-11-20 07:51:00,16.3,13.9,30.57,SE,135,0.0,-999.0,90,0.00,,,0.00,MetarLogicWeatherSta,2013-11-20 12:51:00,
2013-11-20 07:56:00,17.3,15.0,30.57,SE,135,0.0,-999.0,90,0.00,,,0.00,MetarLogicWeatherSta,2013-11-20 12:56:00,
2013-11-20 08:01:00,18.1,15.8,30.57,SE,135,0.0,-999.0,90,0.00,,,0.00,MetarLogicWeatherSta,2013-11-20 13:01:00,
2013-11-20 08:06:00,18.8,16.4,30.57,SE,135,0.0,-999.0,90,0.00,,,0.00,MetarLogicWeatherSta,2013-11-20 13:06:00,
2013-11-20 08:11:00,19.3,16.7,30.57,SSE,157,0.0,-999.0,89,0.00,,,0.00,MetarLogicWeatherSta,2013-11-20 13:11:00,
2013-11-20 08:16:00,19.7,17.3,30.57,SE,135,0.0,-999.0,90,0.00,,,0.00,MetarLogicWeatherSta,2013-11-20 13:16:00,
2013-11-20 08:21:00,21.4,19.1,30.57,SE,135,0.0,-999.0,90,0.00,,,0.00,MetarLogicWeatherSta,2013-11-20 13:21:00,
2013-11-20 08:26:00,22.4,20.1,30.57,SSE,157,0.0,-999.0,90,0.00,,,0.00,MetarLogicWeatherSta,2013-11-20 13:26:00,
2013-11-20 08:31:00,23.6,21.2,30.57,SE,135,0.0,-999.0,90,0.00,,,0.00,MetarLogicWeatherSta,2013-11-20 13:31:00,
2013-11-20 08:36:00,24.5,21.8,30.57,SE,135,0.0,-999.0,89,0.00,,,0.00,MetarLogicWeatherSta,2013-11-20 13:36:00,
2013-11-20 08:41:00,24.9,22.0,30.58,SE,135,0.0,-999.0,88,0.00,,,0.00,MetarLogicWeatherSta,2013-11-20 13:41:00,
2013-11-20 08:46:00,25.5,22.5,30.58,East,90,0.0,-999.0,88,0.00,,,0.00,MetarLogicWeatherSta,2013-11-20 13:46:00,
2013-11-20 08:51:00,26.0,22.6,30.57,ESE,112,1.0,-999.0,86,0.00,,,0.00,MetarLogicWeatherSta,2013-11-20 13:51:00,
2013-11-20 08:56:00,26.1,22.6,30.58,East,90,3.0,-999.0,86,0.00,,,0.00,MetarLogicWeatherSta,2013-11-20 13:56:00,
2013-11-20 09:01:00,26.3,22.6,30.58,ESE,112,0.0,-999.0,85,0.00,,,0.00,MetarLogicWeatherSta,2013-11-20 14:01:00,
2013-11-20 09:06:00,26.9,23.2,30.58,ESE,112,1.0,-999.0,85,0.00,,,0.00,MetarLogicWeatherSta,2013-11-20 14:06:00,
2013-11-20 09:11:00,27.6,23.6,30.58,ESE,112,0.0,-999.0,84,0.00,,,0.00,MetarLogicWeatherSta,2013-11-20 14:11:00,
2013-11-20 09:16:00,28.0,23.9,30.58,ESE,112,0.0,-999.0,84,0.00,,,0.00,MetarLogicWeatherSta,2013-11-20 14:16:00,
2013-11-20 09:21:00,28.5,24.1,30.58,SE,135,0.0,-999.0,83,0.00,,,0.00,MetarLogicWeatherSta,2013-11-20 14:21:00,
2013-11-20 09:26:00,28.8,24.2,30.59,NE,45,3.0,-999.0,82,0.00,,,0.00,MetarLogicWeatherSta,2013-11-20 14:26:00,
2013-11-20 09:31:00,29.2,24.1,30.59,ENE,67,1.0,-999.0,81,0.00,,,0.00,MetarLogicWeatherSta,2013-11-20 14:31:00,
2013-11-20 09:36:00,29.5,23.5,30.59,NNE,22,4.0,-999.0,78,0.00,,,0.00,MetarLogicWeatherSta,2013-11-20 14:36:00,
2013-11-20 09:41:00,29.4,22.1,30.59,ENE,67,6.0,-999.0,74,0.00,,,0.00,MetarLogicWeatherSta,2013-11-20 14:41:00,
2013-11-20 09:46:00,29.4,21.9,30.59,NE,45,3.0,-999.0,73,0.00,,,0.00,MetarLogicWeatherSta,2013-11-20 14:46:00,
2013-11-20 09:51:00,29.3,22.4,30.59,ESE,112,1.0,-999.0,75,0.00,,,0.00,MetarLogicWeatherSta,2013-11-20 14:51:00,
2013-11-20 09:56:00,29.6,22.6,30.59,ENE,67,4.0,-999.0,74,0.00,,,0.00,MetarLogicWeatherSta,2013-11-20 14:56:00,
2013-11-20 10:01:00,30.1,22.7,30.59,NE,45,3.0,-999.0,73,0.00,,,0.00,MetarLogicWeatherSta,2013-11-20 15:01:00,
2013-11-20 10:06:00,30.3,22.6,30.59,ESE,112,3.0,-999.0,72,0.00,,,0.00,MetarLogicWeatherSta,2013-11-20 15:06:00,
2013-11-20 10:11:00,30.3,22.5,30.59,East,90,4.0,-999.0,72,0.00,,,0.00,MetarLogicWeatherSta,2013-11-20 15:11:00,
2013-11-20 10:16:00,30.3,22.4,30.59,East,90,3.0,-999.0,72,0.00,,,0.00,MetarLogicWeatherSta,2013-11-20 15:16:00,
2013-11-20 10:21:00,30.4,22.4,30.59,SE,135,1.0,-999.0,71,0.00,,,0.00,MetarLogicWeatherSta,2013-11-20 15:21:00,
2013-11-20 10:26:00,30.4,22.7,30.59,East,90,4.0,-999.0,72,0.00,,,0.00,MetarLogicWeatherSta,2013-11-20 15:26:00,
2013-11-20 10:31:00,30.2,22.7,30.59,ESE,112,0.0,-999.0,73,0.00,,,0.00,MetarLogicWeatherSta,2013-11-20 15:31:00,
2013-11-20 10:36:00,30.1,22.4,30.59,East,90,1.0,-999.0,72,0.00,,,0.00,MetarLogicWeatherSta,2013-11-20 15:36:00,
2013-11-20 10:41:00,30.0,22.4,30.59,SE,135,1.0,-999.0,72,0.00,,,0.00,MetarLogicWeatherSta,2013-11-20 15:41:00,
2013-11-20 10:46:00,30.4,22.7,30.59,SE,135,0.0,-999.0,72,0.00,,,0.00,MetarLogicWeatherSta,2013-11-20 15:46:00,
2013-11-20 10:51:00,30.5,23.1,30.59,NE,45,3.0,-999.0,73,0.00,,,0.00,MetarLogicWeatherSta,2013-11-20 15:51:00,
2013-11-20 10:56:00,30.5,22.8,30.59,East,90,3.0,-999.0,72,0.00,,,0.00,MetarLogicWeatherSta,2013-11-20 15:56:00,
2013-11-20 11:01:00,30.5,22.7,30.59,East,90,3.0,-999.0,72,0.00,,,0.00,MetarLogicWeatherSta,2013-11-20 16:01:00,
2013-11-20 11:06:00,30.9,23.2,30.58,SSE,157,4.0,-999.0,72,0.00,,,0.00,MetarLogicWeatherSta,2013-11-20 16:06:00,
2013-11-20 11:11:00,30.8,22.5,30.58,ENE,67,4.0,-999.0,71,0.00,,,0.00,MetarLogicWeatherSta,2013-11-20 16:11:00,
2013-11-20 11:16:00,30.9,22.7,30.58,ENE,67,4.0,-999.0,71,0.00,,,0.00,MetarLogicWeatherSta,2013-11-20 16:16:00,
2013-11-20 11:21:00,31.2,22.6,30.57,East,90,1.0,-999.0,70,0.00,,,0.00,MetarLogicWeatherSta,2013-11-20 16:21:00,
2013-11-20 11:26:00,31.3,22.5,30.57,East,90,4.0,-999.0,69,0.00,,,0.00,MetarLogicWeatherSta,2013-11-20 16:26:00,
2013-11-20 11:31:00,31.3,22.8,30.57,SSE,157,0.0,-999.0,70,0.00,,,0.00,MetarLogicWeatherSta,2013-11-20 16:31:00,
2013-11-20 11:36:00,31.4,22.8,30.57,ENE,67,6.0,-999.0,70,0.00,,,0.00,MetarLogicWeatherSta,2013-11-20 16:36:00,
2013-11-20 11:41:00,31.7,23.0,30.57,NE,45,6.0,-999.0,69,0.00,,,0.00,MetarLogicWeatherSta,2013-11-20 16:41:00,
2013-11-20 11:46:00,31.9,22.7,30.57,NE,45,6.0,-999.0,68,0.00,,,0.00,MetarLogicWeatherSta,2013-11-20 16:46:00,
2013-11-20 11:51:00,32.0,22.7,30.57,SE,135,3.0,-999.0,68,0.00,,,0.00,MetarLogicWeatherSta,2013-11-20 16:51:00,
2013-11-20 11:56:00,32.1,23.0,30.56,SSE,157,0.0,-999.0,68,0.00,,,0.00,MetarLogicWeatherSta,2013-11-20 16:56:00,
2013-11-20 12:02:00,32.5,23.3,30.56,NE,45,6.0,-999.0,68,0.00,,,0.00,MetarLogicWeatherSta,2013-11-20 17:02:00,
2013-11-20 12:07:00,32.6,23.0,30.56,East,90,4.0,-999.0,67,0.00,,,0.00,MetarLogicWeatherSta,2013-11-20 17:07:00,
2013-11-20 12:12:00,32.8,22.9,30.56,South,180,0.0,-999.0,66,0.00,,,0.00,MetarLogicWeatherSta,2013-11-20 17:12:00,
2013-11-20 12:17:00,32.7,23.0,30.56,ENE,67,4.0,-999.0,67,0.00,,,0.00,MetarLogicWeatherSta,2013-11-20 17:17:00,
2013-11-20 12:22:00,32.8,22.6,30.56,SSE,157,0.0,-999.0,65,0.00,,,0.00,MetarLogicWeatherSta,2013-11-20 17:22:00,
2013-11-20 12:27:00,32.9,22.8,30.56,SSE,157,0.0,-999.0,66,0.00,,,0.00,MetarLogicWeatherSta,2013-11-20 17:27:00,
2013-11-20 12:32:00,33.0,23.0,30.56,NW,315,1.0,-999.0,66,0.00,,,0.00,MetarLogicWeatherSta,2013-11-20 17:32:00,
2013-11-20 12:37:00,33.3,23.5,30.55,ENE,67,4.0,-999.0,66,0.00,,,0.00,MetarLogicWeatherSta,2013-11-20 17:37:00,
2013-11-20 12:42:00,33.3,22.8,30.55,SSE,157,0.0,-999.0,64,0.00,,,0.00,MetarLogicWeatherSta,2013-11-20 17:42:00,
2013-11-20 12:47:00,33.4,23.0,30.55,NE,45,4.0,-999.0,65,0.00,,,0.00,MetarLogicWeatherSta,2013-11-20 17:47:00,
2013-11-20 12:52:00,33.9,23.5,30.55,SE,135,0.0,-999.0,65,0.00,,,0.00,MetarLogicWeatherSta,2013-11-20 17:52:00,
2013-11-20 12:57:00,34.3,23.8,30.55,NE,45,4.0,-999.0,65,0.00,,,0.00,MetarLogicWeatherSta,2013-11-20 17:57:00,
2013-11-20 13:02:00,34.6,23.4,30.55,North,0,3.0,-999.0,63,0.00,,,0.00,MetarLogicWeatherSta,2013-11-20 18:02:00,
2013-11-20 13:07:00,35.2,23.4,30.54,ESE,112,1.0,-999.0,61,0.00,,,0.00,MetarLogicWeatherSta,2013-11-20 18:07:00,
2013-11-20 13:12:00,35.9,23.6,30.54,ENE,67,6.0,-999.0,60,0.00,,,0.00,MetarLogicWeatherSta,2013-11-20 18:12:00,
2013-11-20 13:17:00,36.1,23.5,30.53,East,90,6.0,-999.0,59,0.00,,,0.00,MetarLogicWeatherSta,2013-11-20 18:17:00,
2013-11-20 13:22:00,36.3,22.9,30.54,ENE,67,8.0,-999.0,57,0.00,,,0.00,MetarLogicWeatherSta,2013-11-20 18:22:00,
2013-11-20 13:27:00,36.7,22.6,30.53,NNE,22,1.0,-999.0,56,0.00,,,0.00,MetarLogicWeatherSta,2013-11-20 18:27:00,
2013-11-20 13:32:00,37.0,23.5,30.54,East,90,3.0,-999.0,57,0.00,,,0.00,MetarLogicWeatherSta,2013-11-20 18:32:00,
2013-11-20 13:37:00,37.3,23.1,30.53,SE,135,0.0,-999.0,56,0.00,,,0.00,MetarLogicWeatherSta,2013-11-20 18:37:00,
2013-11-20 13:42:00,37.7,22.4,30.53,NE,45,6.0,-999.0,53,0.00,,,0.00,MetarLogicWeatherSta,2013-11-20 18:42:00,
2013-11-20 13:47:00,37.5,22.9,30.53,NE,45,3.0,-999.0,55,0.00,,,0.00,MetarLogicWeatherSta,2013-11-20 18:47:00,
2013-11-20 13:52:00,37.6,22.9,30.53,ENE,67,4.0,-999.0,55,0.00,,,0.00,MetarLogicWeatherSta,2013-11-20 18:52:00,
2013-11-20 13:57:00,37.7,22.5,30.52,ENE,67,6.0,-999.0,53,0.00,,,0.00,MetarLogicWeatherSta,2013-11-20 18:57:00,
2013-11-20 14:02:00,37.6,22.4,30.52,NE,45,3.0,-999.0,53,0.00,,,0.00,MetarLogicWeatherSta,2013-11-20 19:02:00,
2013-11-20 14:07:00,37.5,22.5,30.52,SSW,202,1.0,-999.0,54,0.00,,,0.00,MetarLogicWeatherSta,2013-11-20 19:07:00,
2013-11-20 14:12:00,37.4,21.5,30.52,NE,45,6.0,-999.0,52,0.00,,,0.00,MetarLogicWeatherSta,2013-11-20 19:12:00,
2013-11-20 14:17:00,37.2,21.9,30.52,NNE,22,3.0,-999.0,53,0.00,,,0.00,MetarLogicWeatherSta,2013-11-20 19:17:00,
2013-11-20 14:22:00,37.1,21.6,30.52,ENE,67,4.0,-999.0,53,0.00,,,0.00,MetarLogicWeatherSta,2013-11-20 19:22:00,
2013-11-20 14:27:00,37.0,21.8,30.51,NNE,22,4.0,-999.0,53,0.00,,,0.00,MetarLogicWeatherSta,2013-11-20 19:27:00,
2013-11-20 14:32:00,36.8,21.9,30.51,NE,45,4.0,-999.0,54,0.00,,,0.00,MetarLogicWeatherSta,2013-11-20 19:32:00,
2013-11-20 14:37:00,36.7,21.4,30.51,East,90,4.0,-999.0,53,0.00,,,0.00,MetarLogicWeatherSta,2013-11-20 19:37:00,
2013-11-20 14:42:00,36.8,21.8,30.51,East,90,6.0,-999.0,54,0.00,,,0.00,MetarLogicWeatherSta,2013-11-20 19:42:00,
2013-11-20 14:47:00,36.6,20.8,30.51,NE,45,9.0,-999.0,52,0.00,,,0.00,MetarLogicWeatherSta,2013-11-20 19:47:00,
2013-11-20 14:52:00,36.6,20.7,30.51,NE,45,8.0,-999.0,52,0.00,,,0.00,MetarLogicWeatherSta,2013-11-20 19:52:00,
2013-11-20 14:57:00,36.6,20.4,30.51,NE,45,6.0,-999.0,51,0.00,,,0.00,MetarLogicWeatherSta,2013-11-20 19:57:00,
2013-11-20 15:02:00,36.6,21.3,30.50,NE,45,3.0,-999.0,53,0.00,,,0.00,MetarLogicWeatherSta,2013-11-20 20:02:00,
2013-11-20 15:07:00,36.7,21.3,30.50,North,0,3.0,-999.0,53,0.00,,,0.00,MetarLogicWeatherSta,2013-11-20 20:07:00,
2013-11-20 15:12:00,36.6,21.2,30.49,East,90,3.0,-999.0,53,0.00,,,0.00,MetarLogicWeatherSta,2013-11-20 20:12:00,
2013-11-20 15:17:00,36.5,21.3,30.49,ESE,112,3.0,-999.0,53,0.00,,,0.00,MetarLogicWeatherSta,2013-11-20 20:17:00,
2013-11-20 15:22:00,36.4,21.6,30.49,NE,45,3.0,-999.0,54,0.00,,,0.00,MetarLogicWeatherSta,2013-11-20 20:22:00,
2013-11-20 15:27:00,36.0,21.4,30.49,NE,45,3.0,-999.0,54,0.00,,,0.00,MetarLogicWeatherSta,2013-11-20 20:27:00,
2013-11-20 15:32:00,35.8,21.2,30.49,NE,45,3.0,-999.0,55,0.00,,,0.00,MetarLogicWeatherSta,2013-11-20 20:32:00,
2013-11-20 15:37:00,36.0,21.5,30.49,NE,45,3.0,-999.0,55,0.00,,,0.00,MetarLogicWeatherSta,2013-11-20 20:37:00,
2013-11-20 15:42:00,35.7,21.2,30.49,NE,45,4.0,-999.0,55,0.00,,,0.00,MetarLogicWeatherSta,2013-11-20 20:42:00,
2013-11-20 15:47:00,35.5,21.1,30.49,NE,45,8.0,-999.0,55,0.00,,,0.00,MetarLogicWeatherSta,2013-11-20 20:47:00,
2013-11-20 15:52:00,35.5,21.5,30.49,NE,45,4.0,-999.0,56,0.00,,,0.00,MetarLogicWeatherSta,2013-11-20 20:52:00,
2013-11-20 15:57:00,35.2,21.4,30.49,ENE,67,4.0,-999.0,56,0.00,,,0.00,MetarLogicWeatherSta,2013-11-20 20:57:00,
2013-11-20 16:02:00,35.0,21.6,30.49,NE,45,3.0,-999.0,57,0.00,,,0.00,MetarLogicWeatherSta,2013-11-20 21:02:00,
2013-11-20 16:07:00,34.8,21.3,30.49,NNE,22,3.0,-999.0,57,0.00,,,0.00,MetarLogicWeatherSta,2013-11-20 21:07:00,
2013-11-20 16:12:00,34.5,21.0,30.49,NE,45,8.0,-999.0,57,0.00,,,0.00,MetarLogicWeatherSta,2013-11-20 21:12:00,
2013-11-20 16:17:00,34.3,21.2,30.49,ENE,67,4.0,-999.0,58,0.00,,,0.00,MetarLogicWeatherSta,2013-11-20 21:17:00,
2013-11-20 16:22:00,34.1,21.1,30.49,NE,45,3.0,-999.0,58,0.00,,,0.00,MetarLogicWeatherSta,2013-11-20 21:22:00,
2013-11-20 16:27:00,34.0,21.3,30.49,ENE,67,6.0,-999.0,59,0.00,,,0.00,MetarLogicWeatherSta,2013-11-20 21:27:00,
2013-11-20 16:32:00,33.8,21.4,30.49,ENE,67,8.0,-999.0,60,0.00,,,0.00,MetarLogicWeatherSta,2013-11-20 21:32:00,
2013-11-20 16:37:00,33.6,21.1,30.49,NE,45,6.0,-999.0,59,0.00,,,0.00,MetarLogicWeatherSta,2013-11-20 21:37:00,
2013-11-20 16:42:00,33.3,21.2,30.49,East,90,3.0,-999.0,60,0.00,,,0.00,MetarLogicWeatherSta,2013-11-20 21:42:00,
2013-11-20 16:47:00,33.3,21.2,30.49,NE,45,6.0,-999.0,60,0.00,,,0.00,MetarLogicWeatherSta,2013-11-20 21:47:00,
2013-11-20 16:52:00,33.2,21.4,30.49,NE,45,3.0,-999.0,61,0.00,,,0.00,MetarLogicWeatherSta,2013-11-20 21:52:00,
2013-11-20 16:57:00,32.7,21.0,30.49,NE,45,6.0,-999.0,61,0.00,,,0.00,MetarLogicWeatherSta,2013-11-20 21:57:00,
2013-11-20 17:02:00,32.7,21.2,30.49,NE,45,4.0,-999.0,62,0.00,,,0.00,MetarLogicWeatherSta,2013-11-20 22:02:00,
2013-11-20 17:07:00,32.7,21.4,30.49,ENE,67,3.0,-999.0,62,0.00,,,0.00,MetarLogicWeatherSta,2013-11-20 22:07:00,
2013-11-20 17:12:00,32.7,21.6,30.49,ENE,67,4.0,-999.0,63,0.00,,,0.00,MetarLogicWeatherSta,2013-11-20 22:12:00,
2013-11-20 17:17:00,32.4,21.6,30.49,East,90,4.0,-999.0,64,0.00,,,0.00,MetarLogicWeatherSta,2013-11-20 22:17:00,
2013-11-20 17:22:00,32.2,21.4,30.49,ENE,67,8.0,-999.0,64,0.00,,,0.00,MetarLogicWeatherSta,2013-11-20 22:22:00,
2013-11-20 17:27:00,32.1,21.1,30.49,North,0,4.0,-999.0,63,0.00,,,0.00,MetarLogicWeatherSta,2013-11-20 22:27:00,
2013-11-20 17:32:00,32.1,21.4,30.49,North,0,6.0,-999.0,64,0.00,,,0.00,MetarLogicWeatherSta,2013-11-20 22:32:00,
2013-11-20 17:37:00,31.8,21.2,30.49,ENE,67,6.0,-999.0,64,0.00,,,0.00,MetarLogicWeatherSta,2013-11-20 22:37:00,
2013-11-20 17:42:00,31.9,21.2,30.49,NNE,22,4.0,-999.0,64,0.00,,,0.00,MetarLogicWeatherSta,2013-11-20 22:42:00,
2013-11-20 17:47:00,31.7,21.1,30.49,ENE,67,6.0,-999.0,64,0.00,,,0.00,MetarLogicWeatherSta,2013-11-20 22:47:00,
2013-11-20 17:52:00,31.7,21.0,30.49,NE,45,6.0,-999.0,64,0.00,,,0.00,MetarLogicWeatherSta,2013-11-20 22:52:00,
2013-11-20 17:57:00,31.4,20.7,30.49,East,90,4.0,-999.0,64,0.00,,,0.00,MetarLogicWeatherSta,2013-11-20 22:57:00,
2013-11-20 18:02:00,31.2,20.6,30.49,NE,45,6.0,-999.0,64,0.00,,,0.00,MetarLogicWeatherSta,2013-11-20 23:02:00,
2013-11-20 18:07:00,31.2,20.6,30.49,NE,45,6.0,-999.0,64,0.00,,,0.00,MetarLogicWeatherSta,2013-11-20 23:07:00,
2013-11-20 18:12:00,31.0,20.4,30.49,ENE,67,9.0,-999.0,64,0.00,,,0.00,MetarLogicWeatherSta,2013-11-20 23:12:00,
2013-11-20 18:17:00,31.0,20.4,30.49,NE,45,8.0,-999.0,64,0.00,,,0.00,MetarLogicWeatherSta,2013-11-20 23:17:00,
2013-11-20 18:22:00,30.9,20.3,30.49,ENE,67,9.0,-999.0,64,0.00,,,0.00,MetarLogicWeatherSta,2013-11-20 23:22:00,
2013-11-20 18:27:00,30.8,20.2,30.49,ENE,67,8.0,-999.0,64,0.00,,,0.00,MetarLogicWeatherSta,2013-11-20 23:27:00,
2013-11-20 18:32:00,30.9,20.0,30.49,NE,45,9.0,-999.0,63,0.00,,,0.00,MetarLogicWeatherSta,2013-11-20 23:32:00,
2013-11-20 18:37:00,30.8,19.7,30.49,East,90,8.0,-999.0,63,0.00,,,0.00,MetarLogicWeatherSta,2013-11-20 23:37:00,
2013-11-20 18:42:00,30.9,19.9,30.49,East,90,3.0,-999.0,63,0.00,,,0.00,MetarLogicWeatherSta,2013-11-20 23:42:00,
2013-11-20 18:47:00,31.1,20.0,30.50,SSE,157,0.0,-999.0,63,0.00,,,0.00,MetarLogicWeatherSta,2013-11-20 23:47:00,
2013-11-20 18:52:00,30.9,20.0,30.51,SSE,157,0.0,-999.0,63,0.00,,,0.00,MetarLogicWeatherSta,2013-11-20 23:52:00,
2013-11-20 18:57:00,30.4,19.4,30.51,SSE,157,0.0,-999.0,63,0.00,,,0.00,MetarLogicWeatherSta,2013-11-20 23:57:00,
2013-11-20 19:02:00,30.0,19.1,30.51,SE,135,0.0,-999.0,63,0.00,,,0.00,MetarLogicWeatherSta,2013-11-21 00:02:00,
2013-11-20 19:07:00,29.6,19.2,30.51,East,90,1.0,-999.0,64,0.00,,,0.00,MetarLogicWeatherSta,2013-11-21 00:07:00,
2013-11-20 19:12:00,29.6,19.3,30.51,East,90,4.0,-999.0,65,0.00,,,0.00,MetarLogicWeatherSta,2013-11-21 00:12:00,
2013-11-20 19:17:00,29.6,19.5,30.50,East,90,4.0,-999.0,65,0.00,,,0.00,MetarLogicWeatherSta,2013-11-21 00:17:00,
2013-11-20 19:22:00,29.8,19.6,30.50,East,90,4.0,-999.0,65,0.00,,,0.00,MetarLogicWeatherSta,2013-11-21 00:22:00,
2013-11-20 19:27:00,29.8,19.6,30.50,NE,45,4.0,-999.0,65,0.00,,,0.00,MetarLogicWeatherSta,2013-11-21 00:27:00,
2013-11-20 19:32:00,30.0,19.6,30.51,NE,45,4.0,-999.0,65,0.00,,,0.00,MetarLogicWeatherSta,2013-11-21 00:32:00,
2013-11-20 19:37:00,29.9,19.5,30.50,ENE,67,8.0,-999.0,65,0.00,,,0.00,MetarLogicWeatherSta,2013-11-21 00:37:00,
2013-11-20 19:42:00,30.1,19.6,30.51,ENE,67,4.0,-999.0,64,0.00,,,0.00,MetarLogicWeatherSta,2013-11-21 00:42:00,
2013-11-20 19:47:00,30.1,19.8,30.51,NE,45,6.0,-999.0,65,0.00,,,0.00,MetarLogicWeatherSta,2013-11-21 00:47:00,
2013-11-20 19:52:00,29.9,19.7,30.50,ENE,67,6.0,-999.0,65,0.00,,,0.00,MetarLogicWeatherSta,2013-11-21 00:52:00,
2013-11-20 19:57:00,29.9,19.5,30.50,East,90,6.0,-999.0,64,0.00,,,0.00,MetarLogicWeatherSta,2013-11-21 00:57:00,
2013-11-20 20:02:00,29.9,19.7,30.50,NNE,22,4.0,-999.0,65,0.00,,,0.00,MetarLogicWeatherSta,2013-11-21 01:02:00,
2013-11-20 20:07:00,29.9,19.6,30.49,NE,45,6.0,-999.0,65,0.00,,,0.00,MetarLogicWeatherSta,2013-11-21 01:07:00,
2013-11-20 20:12:00,29.7,19.4,30.49,ENE,67,6.0,-999.0,65,0.00,,,0.00,MetarLogicWeatherSta,2013-11-21 01:12:00,
2013-11-20 20:17:00,29.9,19.5,30.49,ENE,67,6.0,-999.0,65,0.00,,,0.00,MetarLogicWeatherSta,2013-11-21 01:17:00,
2013-11-20 20:22:00,29.8,19.7,30.49,NE,45,6.0,-999.0,65,0.00,,,0.00,MetarLogicWeatherSta,2013-11-21 01:22:00,
2013-11-20 20:27:00,29.6,19.6,30.49,NE,45,4.0,-999.0,66,0.00,,,0.00,MetarLogicWeatherSta,2013-11-21 01:27:00,
2013-11-20 20:32:00,29.8,19.9,30.49,NE,45,4.0,-999.0,66,0.00,,,0.00,MetarLogicWeatherSta,2013-11-21 01:32:00,
2013-11-20 20:37:00,29.6,19.8,30.49,ESE,112,4.0,-999.0,66,0.00,,,0.00,MetarLogicWeatherSta,2013-11-21 01:37:00,
2013-11-20 20:42:00,29.8,20.1,30.49,ENE,67,6.0,-999.0,67,0.00,,,0.00,MetarLogicWeatherSta,2013-11-21 01:42:00,
2013-11-20 20:47:00,29.7,19.9,30.48,East,90,8.0,-999.0,66,0.00,,,0.00,MetarLogicWeatherSta,2013-11-21 01:47:00,
2013-11-20 20:52:00,29.6,20.0,30.48,NE,45,9.0,-999.0,67,0.00,,,0.00,MetarLogicWeatherSta,2013-11-21 01:52:00,
2013-11-20 20:57:00,29.8,20.3,30.48,NE,45,6.0,-999.0,67,0.00,,,0.00,MetarLogicWeatherSta,2013-11-21 01:57:00,
2013-11-20 21:02:00,29.8,20.2,30.48,NE,45,4.0,-999.0,67,0.00,,,0.00,MetarLogicWeatherSta,2013-11-21 02:02:00,
2013-11-20 21:07:00,29.6,20.2,30.48,ENE,67,4.0,-999.0,67,0.00,,,0.00,MetarLogicWeatherSta,2013-11-21 02:07:00,
2013-11-20 21:12:00,29.7,20.3,30.48,East,90,4.0,-999.0,67,0.00,,,0.00,MetarLogicWeatherSta,2013-11-21 02:12:00,
2013-11-20 21:17:00,29.5,20.2,30.48,ENE,67,4.0,-999.0,68,0.00,,,0.00,MetarLogicWeatherSta,2013-11-21 02:17:00,
2013-11-20 21:22:00,29.5,20.3,30.48,East,90,6.0,-999.0,68,0.00,,,0.00,MetarLogicWeatherSta,2013-11-21 02:22:00,
2013-11-20 21:27:00,29.4,20.2,30.48,East,90,3.0,-999.0,68,0.00,,,0.00,MetarLogicWeatherSta,2013-11-21 02:27:00,
2013-11-20 21:32:00,29.3,20.1,30.48,SE,135,0.0,-999.0,68,0.00,,,0.00,MetarLogicWeatherSta,2013-11-21 02:32:00,
2013-11-20 21:37:00,29.1,20.0,30.48,SE,135,0.0,-999.0,68,0.00,,,0.00,MetarLogicWeatherSta,2013-11-21 02:37:00,
2013-11-20 21:42:00,28.9,19.7,30.48,SE,135,0.0,-999.0,68,0.00,,,0.00,MetarLogicWeatherSta,2013-11-21 02:42:00,
2013-11-20 21:47:00,28.7,19.4,30.49,SSE,157,0.0,-999.0,67,0.00,,,0.00,MetarLogicWeatherSta,2013-11-21 02:47:00,
2013-11-20 21:52:00,28.3,19.2,30.49,SSE,157,0.0,-999.0,68,0.00,,,0.00,MetarLogicWeatherSta,2013-11-21 02:52:00,
2013-11-20 21:57:00,27.7,18.8,30.49,SSE,157,0.0,-999.0,68,0.00,,,0.00,MetarLogicWeatherSta,2013-11-21 02:57:00,
2013-11-20 22:02:00,27.3,18.5,30.49,SE,135,0.0,-999.0,69,0.00,,,0.00,MetarLogicWeatherSta,2013-11-21 03:02:00,
2013-11-20 22:07:00,26.9,18.5,30.49,ESE,112,1.0,-999.0,70,0.00,,,0.00,MetarLogicWeatherSta,2013-11-21 03:07:00,
2013-11-20 22:12:00,26.7,18.7,30.49,ESE,112,1.0,-999.0,71,0.00,,,0.00,MetarLogicWeatherSta,2013-11-21 03:12:00,
2013-11-20 22:17:00,26.8,18.8,30.48,SE,135,0.0,-999.0,71,0.00,,,0.00,MetarLogicWeatherSta,2013-11-21 03:17:00,
2013-11-20 22:22:00,27.0,19.3,30.49,East,90,3.0,-999.0,72,0.00,,,0.00,MetarLogicWeatherSta,2013-11-21 03:22:00,
2013-11-20 22:27:00,27.3,19.5,30.48,ENE,67,3.0,-999.0,72,0.00,,,0.00,MetarLogicWeatherSta,2013-11-21 03:27:00,
2013-11-20 22:32:00,27.5,19.8,30.48,NE,45,3.0,-999.0,72,0.00,,,0.00,MetarLogicWeatherSta,2013-11-21 03:32:00,
2013-11-20 22:37:00,27.7,20.0,30.48,East,90,3.0,-999.0,72,0.00,,,0.00,MetarLogicWeatherSta,2013-11-21 03:37:00,
2013-11-20 22:42:00,28.3,20.2,30.48,NE,45,3.0,-999.0,71,0.00,,,0.00,MetarLogicWeatherSta,2013-11-21 03:42:00,
2013-11-20 22:47:00,28.5,20.4,30.47,NE,45,6.0,-999.0,71,0.00,,,0.00,MetarLogicWeatherSta,2013-11-21 03:47:00,
2013-11-20 22:52:00,28.7,20.4,30.48,East,90,4.0,-999.0,71,0.00,,,0.00,MetarLogicWeatherSta,2013-11-21 03:52:00,
2013-11-20 22:57:00,28.7,20.4,30.48,NE,45,6.0,-999.0,70,0.00,,,0.00,MetarLogicWeatherSta,2013-11-21 03:57:00,
2013-11-20 23:02:00,28.8,20.2,30.48,ENE,67,3.0,-999.0,70,0.00,,,0.00,MetarLogicWeatherSta,2013-11-21 04:02:00,
2013-11-20 23:07:00,28.8,20.3,30.48,ENE,67,3.0,-999.0,70,0.00,,,0.00,MetarLogicWeatherSta,2013-11-21 04:07:00,
2013-11-20 23:12:00,28.9,20.4,30.48,NE,45,4.0,-999.0,70,0.00,,,0.00,MetarLogicWeatherSta,2013-11-21 04:12:00,
2013-11-20 23:17:00,28.7,20.2,30.47,East,90,3.0,-999.0,70,0.00,,,0.00,MetarLogicWeatherSta,2013-11-21 04:17:00,
2013-11-20 23:22:00,28.6,20.0,30.47,ENE,67,1.0,-999.0,70,0.00,,,0.00,MetarLogicWeatherSta,2013-11-21 04:22:00,
2013-11-20 23:27:00,28.5,19.8,30.47,East,90,4.0,-999.0,69,0.00,,,0.00,MetarLogicWeatherSta,2013-11-21 04:27:00,
2013-11-20 23:32:00,28.5,19.9,30.47,ENE,67,3.0,-999.0,69,0.00,,,0.00,MetarLogicWeatherSta,2013-11-21 04:32:00,
2013-11-20 23:37:00,28.3,19.8,30.47,ENE,67,3.0,-999.0,69,0.00,,,0.00,MetarLogicWeatherSta,2013-11-21 04:37:00,
2013-11-20 23:42:00,28.3,19.7,30.47,NE,45,4.0,-999.0,69,0.00,,,0.00,MetarLogicWeatherSta,2013-11-21 04:42:00,
2013-11-20 23:47:00,28.4,19.9,30.47,ESE,112,3.0,-999.0,70,0.00,,,0.00,MetarLogicWeatherSta,2013-11-21 04:47:00,
2013-11-20 23:52:00,28.2,19.6,30.47,ENE,67,4.0,-999.0,69,0.00,,,0.00,MetarLogicWeatherSta,2013-11-21 04:52:00,
2013-11-20 23:57:00,28.3,19.6,30.46,NE,45,4.0,-999.0,69,0.00,,,0.00,MetarLogicWeatherSta,2013-11-21 04:57:00,